sensor_id;sensor_type;location;lat;lon;timestamp;P1;durP1;ratioP1;P2;durP2;ratioP2
24102;SDS011;12278;53.058;9.028;2022-09-09T00:14:34;20.65;;;17.63;;
24102;SDS011;12278;53.058;9.028;2022-09-09T00:18:57;18.15;;;16.20;;
24102;SDS011;12278;53.058;9.028;2022-09-09T00:27:18;19.92;;;17.52;;
24102;SDS011;12278;53.058;9.028;2022-09-09T00:31:32;19.80;;;17.70;;
24102;SDS011;12278;53.058;9.028;2022-09-09T00:35:37;20.30;;;16.50;;
24102;SDS011;12278;53.058;9.028;2022-09-09T00:39:47;23.50;;;17.43;;
24102;SDS011;12278;53.058;9.028;2022-09-09T00:44:17;19.33;;;17.23;;
24102;SDS011;12278;53.058;9.028;2022-09-09T00:48:42;19.80;;;16.73;;
24102;SDS011;12278;53.058;9.028;2022-09-09T00:53:09;18.55;;;15.88;;
24102;SDS011;12278;53.058;9.028;2022-09-09T00:57:33;18.58;;;15.55;;
24102;SDS011;12278;53.058;9.028;2022-09-09T01:01:36;17.95;;;14.65;;
24102;SDS011;12278;53.058;9.028;2022-09-09T01:05:43;15.40;;;13.80;;
24102;SDS011;12278;53.058;9.028;2022-09-09T01:10:27;17.05;;;14.05;;
24102;SDS011;12278;53.058;9.028;2022-09-09T01:27:16;15.00;;;13.40;;
24102;SDS011;12278;53.058;9.028;2022-09-09T01:31:31;14.90;;;12.75;;
24102;SDS011;12278;53.058;9.028;2022-09-09T01:40:00;14.90;;;13.32;;
24102;SDS011;12278;53.058;9.028;2022-09-09T01:44:02;14.65;;;12.20;;
24102;SDS011;12278;53.058;9.028;2022-09-09T01:48:03;13.98;;;12.07;;
24102;SDS011;12278;53.058;9.028;2022-09-09T01:52:04;13.90;;;12.10;;
24102;SDS011;12278;53.058;9.028;2022-09-09T01:56:16;13.10;;;11.80;;
24102;SDS011;12278;53.058;9.028;2022-09-09T02:14:05;13.70;;;12.30;;
24102;SDS011;12278;53.058;9.028;2022-09-09T02:18:18;13.48;;;11.80;;
24102;SDS011;12278;53.058;9.028;2022-09-09T02:23:05;12.82;;;11.57;;
24102;SDS011;12278;53.058;9.028;2022-09-09T02:27:08;13.23;;;11.93;;
24102;SDS011;12278;53.058;9.028;2022-09-09T02:31:10;14.18;;;10.80;;
24102;SDS011;12278;53.058;9.028;2022-09-09T02:35:16;12.05;;;10.73;;
24102;SDS011;12278;53.058;9.028;2022-09-09T02:39:22;13.47;;;12.03;;
24102;SDS011;12278;53.058;9.028;2022-09-09T02:43:23;11.30;;;10.10;;
24102;SDS011;12278;53.058;9.028;2022-09-09T02:47:35;12.85;;;11.38;;
24102;SDS011;12278;53.058;9.028;2022-09-09T02:55:59;11.55;;;10.50;;
24102;SDS011;12278;53.058;9.028;2022-09-09T03:00:09;12.13;;;10.40;;
24102;SDS011;12278;53.058;9.028;2022-09-09T03:04:11;11.57;;;10.43;;
24102;SDS011;12278;53.058;9.028;2022-09-09T03:08:13;11.30;;;10.10;;
24102;SDS011;12278;53.058;9.028;2022-09-09T03:20:16;10.73;;;9.23;;
24102;SDS011;12278;53.058;9.028;2022-09-09T03:24:18;13.68;;;9.88;;
24102;SDS011;12278;53.058;9.028;2022-09-09T03:28:20;10.48;;;9.07;;
24102;SDS011;12278;53.058;9.028;2022-09-09T03:32:21;10.30;;;8.65;;
24102;SDS011;12278;53.058;9.028;2022-09-09T03:36:26;13.40;;;9.00;;
24102;SDS011;12278;53.058;9.028;2022-09-09T03:40:27;12.25;;;7.85;;
24102;SDS011;12278;53.058;9.028;2022-09-09T04:00:32;8.10;;;7.05;;
24102;SDS011;12278;53.058;9.028;2022-09-09T04:04:33;7.40;;;6.00;;
24102;SDS011;12278;53.058;9.028;2022-09-09T04:32:56;5.80;;;5.30;;
24102;SDS011;12278;53.058;9.028;2022-09-09T04:48:59;7.20;;;4.70;;
24102;SDS011;12278;53.058;9.028;2022-09-09T04:53:01;7.85;;;4.82;;
24102;SDS011;12278;53.058;9.028;2022-09-09T04:57:04;5.05;;;4.20;;
24102;SDS011;12278;53.058;9.028;2022-09-09T05:05:24;7.55;;;4.85;;
24102;SDS011;12278;53.058;9.028;2022-09-09T05:09:26;4.65;;;3.80;;
24102;SDS011;12278;53.058;9.028;2022-09-09T05:13:27;6.60;;;4.50;;
24102;SDS011;12278;53.058;9.028;2022-09-09T05:17:27;8.85;;;4.05;;
24102;SDS011;12278;53.058;9.028;2022-09-09T05:21:29;5.47;;;4.30;;
24102;SDS011;12278;53.058;9.028;2022-09-09T05:25:31;6.65;;;4.88;;
24102;SDS011;12278;53.058;9.028;2022-09-09T05:29:33;7.93;;;4.25;;
24102;SDS011;12278;53.058;9.028;2022-09-09T05:41:36;5.22;;;4.07;;
24102;SDS011;12278;53.058;9.028;2022-09-09T05:45:37;5.32;;;4.10;;
24102;SDS011;12278;53.058;9.028;2022-09-09T05:49:38;6.82;;;4.88;;
24102;SDS011;12278;53.058;9.028;2022-09-09T05:53:39;6.35;;;4.93;;
24102;SDS011;12278;53.058;9.028;2022-09-09T05:57:39;5.00;;;4.40;;
24102;SDS011;12278;53.058;9.028;2022-09-09T06:45:54;4.55;;;4.15;;
24102;SDS011;12278;53.058;9.028;2022-09-09T06:50:00;4.38;;;3.72;;
24102;SDS011;12278;53.058;9.028;2022-09-09T06:54:01;3.47;;;3.17;;
24102;SDS011;12278;53.058;9.028;2022-09-09T06:58:07;5.57;;;3.22;;
24102;SDS011;12278;53.058;9.028;2022-09-09T07:02:10;4.32;;;3.08;;
24102;SDS011;12278;53.058;9.028;2022-09-09T07:06:15;4.33;;;3.00;;
24102;SDS011;12278;53.058;9.028;2022-09-09T07:10:19;4.00;;;3.10;;
24102;SDS011;12278;53.058;9.028;2022-09-09T07:14:19;7.75;;;3.15;;
24102;SDS011;12278;53.058;9.028;2022-09-09T07:18:22;6.43;;;3.58;;
24102;SDS011;12278;53.058;9.028;2022-09-09T07:22:23;5.78;;;3.60;;
24102;SDS011;12278;53.058;9.028;2022-09-09T07:26:26;6.55;;;3.50;;
24102;SDS011;12278;53.058;9.028;2022-09-09T07:30:30;5.55;;;3.55;;
24102;SDS011;12278;53.058;9.028;2022-09-09T07:34:31;5.43;;;3.40;;
24102;SDS011;12278;53.058;9.028;2022-09-09T07:38:32;6.70;;;3.60;;
24102;SDS011;12278;53.058;9.028;2022-09-09T07:42:47;4.13;;;3.00;;
24102;SDS011;12278;53.058;9.028;2022-09-09T07:46:48;5.05;;;3.22;;
24102;SDS011;12278;53.058;9.028;2022-09-09T07:50:49;6.75;;;3.10;;
24102;SDS011;12278;53.058;9.028;2022-09-09T07:54:51;4.60;;;2.30;;
24102;SDS011;12278;53.058;9.028;2022-09-09T07:58:53;4.47;;;3.03;;
24102;SDS011;12278;53.058;9.028;2022-09-09T08:11:07;6.45;;;2.70;;
24102;SDS011;12278;53.058;9.028;2022-09-09T08:23:15;4.00;;;2.58;;
24102;SDS011;12278;53.058;9.028;2022-09-09T08:27:15;4.28;;;2.67;;
24102;SDS011;12278;53.058;9.028;2022-09-09T08:31:20;3.92;;;2.60;;
24102;SDS011;12278;53.058;9.028;2022-09-09T08:35:24;8.27;;;2.72;;
24102;SDS011;12278;53.058;9.028;2022-09-09T08:39:25;4.05;;;3.33;;
24102;SDS011;12278;53.058;9.028;2022-09-09T08:43:27;3.47;;;2.80;;
24102;SDS011;12278;53.058;9.028;2022-09-09T08:52:09;6.50;;;3.03;;
24102;SDS011;12278;53.058;9.028;2022-09-09T08:56:30;4.00;;;3.20;;
24102;SDS011;12278;53.058;9.028;2022-09-09T09:14:03;3.20;;;2.70;;
24102;SDS011;12278;53.058;9.028;2022-09-09T09:18:22;2.53;;;2.27;;
24102;SDS011;12278;53.058;9.028;2022-09-09T09:22:29;3.25;;;2.45;;
24102;SDS011;12278;53.058;9.028;2022-09-09T09:26:37;6.15;;;2.85;;
24102;SDS011;12278;53.058;9.028;2022-09-09T09:30:39;3.15;;;2.63;;
24102;SDS011;12278;53.058;9.028;2022-09-09T09:34:53;3.65;;;2.95;;
24102;SDS011;12278;53.058;9.028;2022-09-09T09:38:57;5.82;;;3.20;;
24102;SDS011;12278;53.058;9.028;2022-09-09T09:43:00;7.30;;;2.95;;
24102;SDS011;12278;53.058;9.028;2022-09-09T09:47:20;6.95;;;2.88;;
24102;SDS011;12278;53.058;9.028;2022-09-09T09:51:23;3.85;;;2.55;;
24102;SDS011;12278;53.058;9.028;2022-09-09T09:55:26;4.50;;;2.83;;
24102;SDS011;12278;53.058;9.028;2022-09-09T09:59:33;4.65;;;2.75;;
24102;SDS011;12278;53.058;9.028;2022-09-09T10:03:36;5.07;;;2.72;;
24102;SDS011;12278;53.058;9.028;2022-09-09T10:07:39;5.03;;;2.92;;
24102;SDS011;12278;53.058;9.028;2022-09-09T10:16:47;4.03;;;2.60;;
24102;SDS011;12278;53.058;9.028;2022-09-09T10:21:00;4.80;;;3.10;;
24102;SDS011;12278;53.058;9.028;2022-09-09T10:48:38;3.88;;;3.05;;
24102;SDS011;12278;53.058;9.028;2022-09-09T10:53:15;5.65;;;3.10;;
24102;SDS011;12278;53.058;9.028;2022-09-09T10:57:26;4.20;;;3.42;;
24102;SDS011;12278;53.058;9.028;2022-09-09T11:01:59;4.38;;;3.80;;
24102;SDS011;12278;53.058;9.028;2022-09-09T12:04:57;4.78;;;2.63;;
24102;SDS011;12278;53.058;9.028;2022-09-09T12:09:08;7.60;;;3.22;;
24102;SDS011;12278;53.058;9.028;2022-09-09T12:13:22;4.13;;;3.22;;
24102;SDS011;12278;53.058;9.028;2022-09-09T12:17:27;11.35;;;3.90;;
24102;SDS011;12278;53.058;9.028;2022-09-09T12:34:11;5.90;;;3.95;;
24102;SDS011;12278;53.058;9.028;2022-09-09T12:38:22;4.50;;;3.25;;
24102;SDS011;12278;53.058;9.028;2022-09-09T12:42:31;4.38;;;2.78;;
24102;SDS011;12278;53.058;9.028;2022-09-09T12:46:40;5.60;;;2.38;;
24102;SDS011;12278;53.058;9.028;2022-09-09T12:50:47;8.02;;;2.58;;
24102;SDS011;12278;53.058;9.028;2022-09-09T12:54:51;2.92;;;2.05;;
24102;SDS011;12278;53.058;9.028;2022-09-09T12:58:54;1.90;;;1.80;;
24102;SDS011;12278;53.058;9.028;2022-09-09T13:02:59;1.98;;;1.80;;
24102;SDS011;12278;53.058;9.028;2022-09-09T13:07:06;4.55;;;2.55;;
24102;SDS011;12278;53.058;9.028;2022-09-09T13:11:14;6.20;;;2.70;;
24102;SDS011;12278;53.058;9.028;2022-09-09T13:15:22;6.57;;;2.58;;
24102;SDS011;12278;53.058;9.028;2022-09-09T13:19:29;2.80;;;2.08;;
24102;SDS011;12278;53.058;9.028;2022-09-09T13:23:36;7.15;;;2.80;;
24102;SDS011;12278;53.058;9.028;2022-09-09T13:27:39;4.07;;;2.65;;
24102;SDS011;12278;53.058;9.028;2022-09-09T13:31:53;4.43;;;2.47;;
24102;SDS011;12278;53.058;9.028;2022-09-09T13:36:09;5.80;;;2.85;;
24102;SDS011;12278;53.058;9.028;2022-09-09T13:40:19;6.93;;;2.40;;
24102;SDS011;12278;53.058;9.028;2022-09-09T13:44:24;2.45;;;2.00;;
24102;SDS011;12278;53.058;9.028;2022-09-09T14:24:41;3.45;;;1.90;;
24102;SDS011;12278;53.058;9.028;2022-09-09T14:32:42;5.50;;;2.10;;
24102;SDS011;12278;53.058;9.028;2022-09-09T14:36:43;7.43;;;2.60;;
24102;SDS011;12278;53.058;9.028;2022-09-09T14:44:46;4.35;;;2.97;;
24102;SDS011;12278;53.058;9.028;2022-09-09T14:48:47;3.17;;;2.88;;
24102;SDS011;12278;53.058;9.028;2022-09-09T14:52:49;6.60;;;2.75;;
24102;SDS011;12278;53.058;9.028;2022-09-09T14:56:50;4.40;;;3.40;;
24102;SDS011;12278;53.058;9.028;2022-09-09T15:12:57;4.20;;;3.80;;
24102;SDS011;12278;53.058;9.028;2022-09-09T15:45:17;7.50;;;3.90;;
24102;SDS011;12278;53.058;9.028;2022-09-09T15:49:19;5.20;;;2.90;;
24102;SDS011;12278;53.058;9.028;2022-09-09T15:53:25;5.28;;;3.47;;
24102;SDS011;12278;53.058;9.028;2022-09-09T15:57:26;5.15;;;3.00;;
24102;SDS011;12278;53.058;9.028;2022-09-09T16:01:27;3.92;;;2.80;;
24102;SDS011;12278;53.058;9.028;2022-09-09T16:05:32;7.13;;;3.85;;
24102;SDS011;12278;53.058;9.028;2022-09-09T16:09:35;5.70;;;3.13;;
24102;SDS011;12278;53.058;9.028;2022-09-09T16:13:36;3.10;;;2.80;;
24102;SDS011;12278;53.058;9.028;2022-09-09T16:17:37;5.50;;;2.88;;
24102;SDS011;12278;53.058;9.028;2022-09-09T16:21:42;3.15;;;2.70;;
24102;SDS011;12278;53.058;9.028;2022-09-09T16:25:55;3.42;;;3.00;;
24102;SDS011;12278;53.058;9.028;2022-09-09T16:29:56;3.80;;;3.30;;
24102;SDS011;12278;53.058;9.028;2022-09-09T16:33:57;5.45;;;3.10;;
24102;SDS011;12278;53.058;9.028;2022-09-09T16:37:59;5.05;;;2.75;;
24102;SDS011;12278;53.058;9.028;2022-09-09T16:42:00;3.80;;;3.30;;
24102;SDS011;12278;53.058;9.028;2022-09-09T16:46:02;5.30;;;3.22;;
24102;SDS011;12278;53.058;9.028;2022-09-09T16:50:04;3.10;;;2.70;;
24102;SDS011;12278;53.058;9.028;2022-09-09T16:54:06;3.45;;;2.70;;
24102;SDS011;12278;53.058;9.028;2022-09-09T16:58:10;5.80;;;3.17;;
24102;SDS011;12278;53.058;9.028;2022-09-09T17:02:11;3.92;;;2.20;;
24102;SDS011;12278;53.058;9.028;2022-09-09T17:06:13;3.25;;;2.13;;
24102;SDS011;12278;53.058;9.028;2022-09-09T17:10:15;2.60;;;2.27;;
24102;SDS011;12278;53.058;9.028;2022-09-09T17:18:20;4.50;;;2.85;;
24102;SDS011;12278;53.058;9.028;2022-09-09T17:22:22;2.47;;;2.25;;
24102;SDS011;12278;53.058;9.028;2022-09-09T17:26:25;3.10;;;2.15;;
24102;SDS011;12278;53.058;9.028;2022-09-09T17:34:34;5.15;;;2.88;;
24102;SDS011;12278;53.058;9.028;2022-09-09T17:38:35;3.90;;;2.88;;
24102;SDS011;12278;53.058;9.028;2022-09-09T17:42:37;3.67;;;2.75;;
24102;SDS011;12278;53.058;9.028;2022-09-09T17:46:39;4.70;;;2.97;;
24102;SDS011;12278;53.058;9.028;2022-09-09T17:50:42;4.55;;;2.90;;
24102;SDS011;12278;53.058;9.028;2022-09-09T17:54:43;4.97;;;3.20;;
24102;SDS011;12278;53.058;9.028;2022-09-09T17:58:44;4.55;;;3.00;;
24102;SDS011;12278;53.058;9.028;2022-09-09T18:18:55;3.35;;;2.35;;
24102;SDS011;12278;53.058;9.028;2022-09-09T18:22:59;3.97;;;2.60;;
24102;SDS011;12278;53.058;9.028;2022-09-09T18:27:00;2.88;;;2.58;;
24102;SDS011;12278;53.058;9.028;2022-09-09T18:31:03;3.00;;;2.65;;
24102;SDS011;12278;53.058;9.028;2022-09-09T18:35:07;5.50;;;2.90;;
24102;SDS011;12278;53.058;9.028;2022-09-09T18:39:08;4.03;;;3.40;;
24102;SDS011;12278;53.058;9.028;2022-09-09T18:43:10;4.00;;;3.50;;
24102;SDS011;12278;53.058;9.028;2022-09-09T18:47:11;3.83;;;3.13;;
24102;SDS011;12278;53.058;9.028;2022-09-09T18:51:13;4.57;;;3.33;;
24102;SDS011;12278;53.058;9.028;2022-09-09T18:55:18;6.82;;;3.40;;
24102;SDS011;12278;53.058;9.028;2022-09-09T18:59:21;5.63;;;4.03;;
24102;SDS011;12278;53.058;9.028;2022-09-09T19:03:23;4.30;;;3.15;;
24102;SDS011;12278;53.058;9.028;2022-09-09T19:07:25;3.55;;;3.25;;
24102;SDS011;12278;53.058;9.028;2022-09-09T19:11:26;3.75;;;3.45;;
24102;SDS011;12278;53.058;9.028;2022-09-09T19:15:27;3.72;;;3.42;;
24102;SDS011;12278;53.058;9.028;2022-09-09T19:19:29;4.22;;;3.15;;
24102;SDS011;12278;53.058;9.028;2022-09-09T19:23:32;4.22;;;3.63;;
24102;SDS011;12278;53.058;9.028;2022-09-09T19:27:33;3.60;;;3.20;;
24102;SDS011;12278;53.058;9.028;2022-09-09T19:31:33;7.93;;;3.58;;
24102;SDS011;12278;53.058;9.028;2022-09-09T19:35:35;7.63;;;4.07;;
24102;SDS011;12278;53.058;9.028;2022-09-09T19:39:36;5.57;;;3.60;;
24102;SDS011;12278;53.058;9.028;2022-09-09T19:43:39;5.97;;;4.00;;
24102;SDS011;12278;53.058;9.028;2022-09-09T19:47:41;5.90;;;4.50;;
24102;SDS011;12278;53.058;9.028;2022-09-09T19:51:42;4.65;;;4.25;;
24102;SDS011;12278;53.058;9.028;2022-09-09T19:55:43;4.85;;;4.00;;
24102;SDS011;12278;53.058;9.028;2022-09-09T19:59:45;4.65;;;4.22;;
24102;SDS011;12278;53.058;9.028;2022-09-09T20:03:47;7.57;;;4.43;;
24102;SDS011;12278;53.058;9.028;2022-09-09T20:07:52;5.95;;;4.05;;
24102;SDS011;12278;53.058;9.028;2022-09-09T20:11:53;4.68;;;4.22;;
24102;SDS011;12278;53.058;9.028;2022-09-09T20:20:00;5.07;;;4.50;;
24102;SDS011;12278;53.058;9.028;2022-09-09T20:24:04;4.53;;;3.97;;
24102;SDS011;12278;53.058;9.028;2022-09-09T20:28:08;4.88;;;4.15;;
24102;SDS011;12278;53.058;9.028;2022-09-09T20:32:08;4.28;;;3.90;;
24102;SDS011;12278;53.058;9.028;2022-09-09T20:36:11;4.55;;;3.53;;
24102;SDS011;12278;53.058;9.028;2022-09-09T20:40:21;4.25;;;3.45;;
24102;SDS011;12278;53.058;9.028;2022-09-09T20:44:22;6.75;;;3.88;;
24102;SDS011;12278;53.058;9.028;2022-09-09T20:48:24;4.25;;;3.90;;
24102;SDS011;12278;53.058;9.028;2022-09-09T20:52:25;7.60;;;4.30;;
24102;SDS011;12278;53.058;9.028;2022-09-09T20:56:29;4.75;;;4.30;;
24102;SDS011;12278;53.058;9.028;2022-09-09T21:00:39;5.60;;;4.05;;
24102;SDS011;12278;53.058;9.028;2022-09-09T21:04:40;4.00;;;3.40;;
24102;SDS011;12278;53.058;9.028;2022-09-09T21:08:42;4.95;;;3.85;;
24102;SDS011;12278;53.058;9.028;2022-09-09T21:12:44;3.90;;;3.60;;
24102;SDS011;12278;53.058;9.028;2022-09-09T21:16:45;4.28;;;3.88;;
24102;SDS011;12278;53.058;9.028;2022-09-09T21:20:46;4.20;;;3.80;;
24102;SDS011;12278;53.058;9.028;2022-09-09T21:24:48;3.90;;;3.60;;
24102;SDS011;12278;53.058;9.028;2022-09-09T21:28:49;6.03;;;4.00;;
24102;SDS011;12278;53.058;9.028;2022-09-09T21:32:50;4.72;;;4.30;;
24102;SDS011;12278;53.058;9.028;2022-09-09T21:36:51;4.18;;;3.28;;
24102;SDS011;12278;53.058;9.028;2022-09-09T21:40:52;4.05;;;3.70;;
24102;SDS011;12278;53.058;9.028;2022-09-09T21:44:53;4.18;;;3.78;;
24102;SDS011;12278;53.058;9.028;2022-09-09T21:48:54;6.00;;;4.60;;
24102;SDS011;12278;53.058;9.028;2022-09-09T23:13:26;3.45;;;2.63;;
24102;SDS011;12278;53.058;9.028;2022-09-09T23:17:30;3.58;;;2.72;;
24102;SDS011;12278;53.058;9.028;2022-09-09T23:21:33;3.63;;;2.58;;
24102;SDS011;12278;53.058;9.028;2022-09-09T23:25:34;2.75;;;2.30;;
24102;SDS011;12278;53.058;9.028;2022-09-09T23:29:35;3.95;;;2.55;;
24102;SDS011;12278;53.058;9.028;2022-09-09T23:33:36;3.92;;;2.63;;
24102;SDS011;12278;53.058;9.028;2022-09-09T23:37:37;3.30;;;2.63;;
24102;SDS011;12278;53.058;9.028;2022-09-09T23:41:39;4.80;;;2.97;;
24102;SDS011;12278;53.058;9.028;2022-09-09T23:45:40;4.65;;;2.80;;
24102;SDS011;12278;53.058;9.028;2022-09-09T23:49:41;4.40;;;2.20;;
24102;SDS011;12278;53.058;9.028;2022-09-09T23:53:42;4.90;;;2.75;;
24102;SDS011;12278;53.058;9.028;2022-09-09T23:57:50;2.63;;;2.42;;
